Neahkahnie, Oregon
Current Conditions -  °F | °C
As of 1:15 PM on Sunday 23 Nov 2014 (Local Time) from KTMK Reporting Station
Light Rain Light Rain  
Wind Chill: 55°   Ceiling: 4800
Heat Index: 55°   Visibility: 7mi
Dew Point: 50°   Wind: 18mph
Humidity: 82%   Direction: 220°SW
Pressure: 30.26"   Gusts: 29mph
Location:  45.7222°N, 123.684°W
Report Text: KTMK 232115Z AUTO 22016G25KT 7SM -RA SCT025 BKN048 OVC050 13/10 A3026 RMK AO2
Loading
Personal Weather Stations






























Interactive Weather Map New forecast layout! Learn more

10-Day Weather Forecast

Advertisements
Track Severe Weather on mobile